Terminal Aerodrome Forecast
Issued by NWS

Home | Current Version | Previous Version | Graphics & Text | Print | Product List | Glossary On
Versions: 1 2 3 4 5 6 7 8 9 10 11 12 13
000
FTUS43 KICT 220730 AAA
TAFRSL
TAF AMD
KRSL 220730Z 2208/2306 19015KT 4SM -DZ BR OVC003
      TEMPO 2208/2211 2SM -RA BR
     FM221100 23015KT 6SM BR VCSH OVC006
     FM221300 29015KT P6SM VCSH BKN025
     FM221700 31022G32KT P6SM SCT030
     FM230000 30011KT P6SM SCT030=

USA.gov is the U.S. government's official web portal to all federal, state and local government web resources and services.